sensor_id;sensor_type;location;lat;lon;timestamp;temperature;humidity
42683;DHT22;28293;50.930;3.464;2022-12-26T00:01:32;10.10;95.60
42683;DHT22;28293;50.930;3.464;2022-12-26T00:03:58;10.10;95.60
42683;DHT22;28293;50.930;3.464;2022-12-26T00:06:26;10.10;95.50
42683;DHT22;28293;50.930;3.464;2022-12-26T00:08:52;10.10;95.60
42683;DHT22;28293;50.930;3.464;2022-12-26T00:11:20;10.10;95.50
42683;DHT22;28293;50.930;3.464;2022-12-26T00:13:45;10.00;95.60
42683;DHT22;28293;50.930;3.464;2022-12-26T00:16:15;10.10;95.50
42683;DHT22;28293;50.930;3.464;2022-12-26T00:18:41;10.10;95.50
42683;DHT22;28293;50.930;3.464;2022-12-26T00:21:08;10.00;95.50
42683;DHT22;28293;50.930;3.464;2022-12-26T00:23:35;10.10;95.50
42683;DHT22;28293;50.930;3.464;2022-12-26T00:26:10;10.00;95.40
42683;DHT22;28293;50.930;3.464;2022-12-26T00:28:36;9.90;95.40
42683;DHT22;28293;50.930;3.464;2022-12-26T00:31:06;9.90;95.40
42683;DHT22;28293;50.930;3.464;2022-12-26T00:33:33;9.90;95.30
42683;DHT22;28293;50.930;3.464;2022-12-26T00:36:04;9.90;95.30
42683;DHT22;28293;50.930;3.464;2022-12-26T00:38:36;9.80;95.30
42683;DHT22;28293;50.930;3.464;2022-12-26T00:41:02;9.80;95.30
42683;DHT22;28293;50.930;3.464;2022-12-26T00:43:28;9.70;95.30
42683;DHT22;28293;50.930;3.464;2022-12-26T00:45:54;9.70;95.30
42683;DHT22;28293;50.930;3.464;2022-12-26T00:48:20;9.60;95.40
42683;DHT22;28293;50.930;3.464;2022-12-26T00:50:45;9.60;95.30
42683;DHT22;28293;50.930;3.464;2022-12-26T00:53:11;9.60;95.40
42683;DHT22;28293;50.930;3.464;2022-12-26T00:55:37;9.60;95.40
42683;DHT22;28293;50.930;3.464;2022-12-26T00:58:02;9.60;95.40
42683;DHT22;28293;50.930;3.464;2022-12-26T01:00:28;9.60;95.40
42683;DHT22;28293;50.930;3.464;2022-12-26T01:02:54;9.50;95.40
42683;DHT22;28293;50.930;3.464;2022-12-26T01:05:20;9.50;95.40
42683;DHT22;28293;50.930;3.464;2022-12-26T01:07:45;9.50;95.30
42683;DHT22;28293;50.930;3.464;2022-12-26T01:10:12;9.40;95.30
42683;DHT22;28293;50.930;3.464;2022-12-26T01:12:38;9.40;95.30
42683;DHT22;28293;50.930;3.464;2022-12-26T01:15:05;9.30;95.30
42683;DHT22;28293;50.930;3.464;2022-12-26T01:17:31;9.30;95.30
42683;DHT22;28293;50.930;3.464;2022-12-26T01:19:57;9.20;95.30
42683;DHT22;28293;50.930;3.464;2022-12-26T01:22:23;9.20;95.30
42683;DHT22;28293;50.930;3.464;2022-12-26T01:24:52;9.20;95.30
42683;DHT22;28293;50.930;3.464;2022-12-26T01:27:18;9.10;95.40
42683;DHT22;28293;50.930;3.464;2022-12-26T01:29:44;9.10;95.40
42683;DHT22;28293;50.930;3.464;2022-12-26T01:32:10;9.10;95.40
42683;DHT22;28293;50.930;3.464;2022-12-26T01:34:35;9.10;95.40
42683;DHT22;28293;50.930;3.464;2022-12-26T01:37:01;9.10;95.40
42683;DHT22;28293;50.930;3.464;2022-12-26T01:39:27;9.10;95.40
42683;DHT22;28293;50.930;3.464;2022-12-26T01:41:52;9.10;95.40
42683;DHT22;28293;50.930;3.464;2022-12-26T01:47:23;9.00;95.40
42683;DHT22;28293;50.930;3.464;2022-12-26T01:49:53;9.00;95.40
42683;DHT22;28293;50.930;3.464;2022-12-26T01:52:26;8.90;95.30
42683;DHT22;28293;50.930;3.464;2022-12-26T01:54:53;8.90;95.40
42683;DHT22;28293;50.930;3.464;2022-12-26T01:57:44;9.00;95.30
42683;DHT22;28293;50.930;3.464;2022-12-26T02:00:12;8.90;95.20
42683;DHT22;28293;50.930;3.464;2022-12-26T02:02:38;8.90;95.20
42683;DHT22;28293;50.930;3.464;2022-12-26T02:05:25;8.90;95.10
42683;DHT22;28293;50.930;3.464;2022-12-26T02:08:09;8.90;95.10
42683;DHT22;28293;50.930;3.464;2022-12-26T02:10:41;8.90;95.10
42683;DHT22;28293;50.930;3.464;2022-12-26T02:13:10;8.90;95.10
42683;DHT22;28293;50.930;3.464;2022-12-26T02:15:36;8.90;95.10
42683;DHT22;28293;50.930;3.464;2022-12-26T02:18:02;8.90;95.10
42683;DHT22;28293;50.930;3.464;2022-12-26T02:20:38;8.90;95.00
42683;DHT22;28293;50.930;3.464;2022-12-26T02:23:35;8.90;95.10
42683;DHT22;28293;50.930;3.464;2022-12-26T02:40:22;8.90;95.00
42683;DHT22;28293;50.930;3.464;2022-12-26T02:48:37;8.80;95.00
42683;DHT22;28293;50.930;3.464;2022-12-26T02:54:50;8.80;95.00
42683;DHT22;28293;50.930;3.464;2022-12-26T02:57:46;8.80;95.00
42683;DHT22;28293;50.930;3.464;2022-12-26T03:00:37;8.80;94.90
42683;DHT22;28293;50.930;3.464;2022-12-26T03:03:27;8.80;95.00
42683;DHT22;28293;50.930;3.464;2022-12-26T03:06:33;8.80;95.00
42683;DHT22;28293;50.930;3.464;2022-12-26T03:09:20;8.70;95.10
42683;DHT22;28293;50.930;3.464;2022-12-26T03:12:39;8.80;95.10
42683;DHT22;28293;50.930;3.464;2022-12-26T03:15:28;8.80;95.10
42683;DHT22;28293;50.930;3.464;2022-12-26T03:18:17;8.80;95.20
42683;DHT22;28293;50.930;3.464;2022-12-26T03:20:43;8.80;95.20
42683;DHT22;28293;50.930;3.464;2022-12-26T03:23:13;8.80;95.20
42683;DHT22;28293;50.930;3.464;2022-12-26T03:26:07;8.80;95.20
42683;DHT22;28293;50.930;3.464;2022-12-26T03:28:52;8.90;95.30
42683;DHT22;28293;50.930;3.464;2022-12-26T03:31:38;8.90;95.30
42683;DHT22;28293;50.930;3.464;2022-12-26T03:34:06;8.90;95.30
42683;DHT22;28293;50.930;3.464;2022-12-26T03:37:17;8.90;95.30
42683;DHT22;28293;50.930;3.464;2022-12-26T03:40:35;9.00;95.40
42683;DHT22;28293;50.930;3.464;2022-12-26T03:48:54;9.00;95.50
42683;DHT22;28293;50.930;3.464;2022-12-26T03:51:48;9.10;95.40
42683;DHT22;28293;50.930;3.464;2022-12-26T03:54:43;9.10;95.40
42683;DHT22;28293;50.930;3.464;2022-12-26T03:57:37;9.10;95.40
42683;DHT22;28293;50.930;3.464;2022-12-26T04:00:23;9.20;95.30
42683;DHT22;28293;50.930;3.464;2022-12-26T04:03:12;9.20;95.30
42683;DHT22;28293;50.930;3.464;2022-12-26T04:05:59;9.20;95.20
42683;DHT22;28293;50.930;3.464;2022-12-26T04:08:47;9.20;95.30
42683;DHT22;28293;50.930;3.464;2022-12-26T04:11:34;9.20;95.20
42683;DHT22;28293;50.930;3.464;2022-12-26T04:14:43;9.30;95.30
42683;DHT22;28293;50.930;3.464;2022-12-26T04:23:40;9.40;95.10
42683;DHT22;28293;50.930;3.464;2022-12-26T04:26:36;9.30;95.00
42683;DHT22;28293;50.930;3.464;2022-12-26T04:29:21;9.30;95.00
42683;DHT22;28293;50.930;3.464;2022-12-26T04:32:23;9.20;95.00
42683;DHT22;28293;50.930;3.464;2022-12-26T04:35:13;9.30;94.90
42683;DHT22;28293;50.930;3.464;2022-12-26T04:37:58;9.40;94.70
42683;DHT22;28293;50.930;3.464;2022-12-26T04:40:45;9.40;94.60
42683;DHT22;28293;50.930;3.464;2022-12-26T04:43:33;9.40;94.50
42683;DHT22;28293;50.930;3.464;2022-12-26T04:46:19;9.40;94.50
42683;DHT22;28293;50.930;3.464;2022-12-26T04:48:47;9.40;94.40
42683;DHT22;28293;50.930;3.464;2022-12-26T04:51:34;9.40;94.30
42683;DHT22;28293;50.930;3.464;2022-12-26T04:53:59;9.40;94.30
42683;DHT22;28293;50.930;3.464;2022-12-26T04:56:25;9.50;94.20
42683;DHT22;28293;50.930;3.464;2022-12-26T04:58:51;9.50;94.20
42683;DHT22;28293;50.930;3.464;2022-12-26T05:01:16;9.60;94.10
42683;DHT22;28293;50.930;3.464;2022-12-26T05:04:01;9.60;94.00
42683;DHT22;28293;50.930;3.464;2022-12-26T05:06:45;9.60;93.90
42683;DHT22;28293;50.930;3.464;2022-12-26T05:09:29;9.60;93.80
42683;DHT22;28293;50.930;3.464;2022-12-26T05:11:58;9.60;93.80
42683;DHT22;28293;50.930;3.464;2022-12-26T05:14:24;9.60;93.70
42683;DHT22;28293;50.930;3.464;2022-12-26T05:16:50;9.60;93.60
42683;DHT22;28293;50.930;3.464;2022-12-26T05:19:34;9.60;93.50
42683;DHT22;28293;50.930;3.464;2022-12-26T05:22:19;9.50;93.50
42683;DHT22;28293;50.930;3.464;2022-12-26T05:25:03;9.50;93.50
42683;DHT22;28293;50.930;3.464;2022-12-26T05:27:47;9.50;93.50
42683;DHT22;28293;50.930;3.464;2022-12-26T05:30:31;9.50;93.50
42683;DHT22;28293;50.930;3.464;2022-12-26T05:32:57;9.60;93.60
42683;DHT22;28293;50.930;3.464;2022-12-26T05:35:41;9.50;93.50
42683;DHT22;28293;50.930;3.464;2022-12-26T05:38:09;9.60;93.50
42683;DHT22;28293;50.930;3.464;2022-12-26T05:40:35;9.60;93.50
42683;DHT22;28293;50.930;3.464;2022-12-26T05:43:00;9.60;93.50
42683;DHT22;28293;50.930;3.464;2022-12-26T05:45:26;9.70;93.40
42683;DHT22;28293;50.930;3.464;2022-12-26T05:47:58;9.70;93.40
42683;DHT22;28293;50.930;3.464;2022-12-26T05:50:24;9.60;93.50
42683;DHT22;28293;50.930;3.464;2022-12-26T05:52:50;9.70;93.50
42683;DHT22;28293;50.930;3.464;2022-12-26T05:55:15;9.70;93.40
42683;DHT22;28293;50.930;3.464;2022-12-26T05:57:41;9.70;93.30
42683;DHT22;28293;50.930;3.464;2022-12-26T06:00:07;9.70;93.30
42683;DHT22;28293;50.930;3.464;2022-12-26T06:02:33;9.70;93.10
42683;DHT22;28293;50.930;3.464;2022-12-26T06:04:59;9.70;93.10
42683;DHT22;28293;50.930;3.464;2022-12-26T06:07:24;9.70;93.10
42683;DHT22;28293;50.930;3.464;2022-12-26T06:09:50;9.60;93.00
42683;DHT22;28293;50.930;3.464;2022-12-26T06:12:16;9.70;93.10
42683;DHT22;28293;50.930;3.464;2022-12-26T06:14:41;9.60;93.10
42683;DHT22;28293;50.930;3.464;2022-12-26T06:17:07;9.60;93.30
42683;DHT22;28293;50.930;3.464;2022-12-26T06:19:33;9.50;93.40
42683;DHT22;28293;50.930;3.464;2022-12-26T06:21:58;9.60;93.40
42683;DHT22;28293;50.930;3.464;2022-12-26T06:24:24;9.60;93.40
42683;DHT22;28293;50.930;3.464;2022-12-26T06:26:50;9.50;93.50
42683;DHT22;28293;50.930;3.464;2022-12-26T06:29:15;9.50;93.50
42683;DHT22;28293;50.930;3.464;2022-12-26T06:31:41;9.50;93.50
42683;DHT22;28293;50.930;3.464;2022-12-26T06:34:08;9.50;93.50
42683;DHT22;28293;50.930;3.464;2022-12-26T06:36:35;9.60;93.50
42683;DHT22;28293;50.930;3.464;2022-12-26T06:39:01;9.60;93.40
42683;DHT22;28293;50.930;3.464;2022-12-26T06:41:26;9.60;93.40
42683;DHT22;28293;50.930;3.464;2022-12-26T06:43:52;9.60;93.30
42683;DHT22;28293;50.930;3.464;2022-12-26T06:46:20;9.70;93.20
42683;DHT22;28293;50.930;3.464;2022-12-26T06:48:46;9.70;93.10
42683;DHT22;28293;50.930;3.464;2022-12-26T06:51:16;9.70;93.00
42683;DHT22;28293;50.930;3.464;2022-12-26T06:53:43;9.60;92.90
42683;DHT22;28293;50.930;3.464;2022-12-26T06:56:14;9.70;92.90
42683;DHT22;28293;50.930;3.464;2022-12-26T06:58:41;9.70;92.80
42683;DHT22;28293;50.930;3.464;2022-12-26T07:01:12;9.70;92.80
42683;DHT22;28293;50.930;3.464;2022-12-26T07:03:37;9.60;92.70
42683;DHT22;28293;50.930;3.464;2022-12-26T07:06:26;9.70;92.60
42683;DHT22;28293;50.930;3.464;2022-12-26T07:08:51;9.70;92.50
42683;DHT22;28293;50.930;3.464;2022-12-26T07:11:24;9.70;92.40
42683;DHT22;28293;50.930;3.464;2022-12-26T07:13:50;9.70;92.40
42683;DHT22;28293;50.930;3.464;2022-12-26T07:16:16;9.70;92.20
42683;DHT22;28293;50.930;3.464;2022-12-26T07:18:42;9.70;92.00
42683;DHT22;28293;50.930;3.464;2022-12-26T07:21:10;9.80;91.80
42683;DHT22;28293;50.930;3.464;2022-12-26T07:23:36;9.80;91.70
42683;DHT22;28293;50.930;3.464;2022-12-26T07:26:02;9.80;91.50
42683;DHT22;28293;50.930;3.464;2022-12-26T07:28:28;9.90;91.20
42683;DHT22;28293;50.930;3.464;2022-12-26T07:30:54;9.90;91.10
42683;DHT22;28293;50.930;3.464;2022-12-26T07:33:22;9.80;90.90
42683;DHT22;28293;50.930;3.464;2022-12-26T07:35:48;9.90;90.80
42683;DHT22;28293;50.930;3.464;2022-12-26T07:38:14;9.90;90.80
42683;DHT22;28293;50.930;3.464;2022-12-26T07:40:40;9.90;90.70
42683;DHT22;28293;50.930;3.464;2022-12-26T07:43:05;9.90;90.60
42683;DHT22;28293;50.930;3.464;2022-12-26T07:45:31;9.90;90.70
42683;DHT22;28293;50.930;3.464;2022-12-26T07:47:57;9.90;90.80
42683;DHT22;28293;50.930;3.464;2022-12-26T07:50:24;9.90;90.70
42683;DHT22;28293;50.930;3.464;2022-12-26T07:52:51;9.90;90.60
42683;DHT22;28293;50.930;3.464;2022-12-26T07:55:16;9.90;90.60
42683;DHT22;28293;50.930;3.464;2022-12-26T07:57:42;10.00;90.60
42683;DHT22;28293;50.930;3.464;2022-12-26T08:00:08;10.00;90.60
42683;DHT22;28293;50.930;3.464;2022-12-26T08:02:34;10.00;90.50
42683;DHT22;28293;50.930;3.464;2022-12-26T08:05:00;10.00;90.70
42683;DHT22;28293;50.930;3.464;2022-12-26T08:07:25;10.10;90.60
42683;DHT22;28293;50.930;3.464;2022-12-26T08:09:51;10.10;90.60
42683;DHT22;28293;50.930;3.464;2022-12-26T08:12:17;10.10;90.60
42683;DHT22;28293;50.930;3.464;2022-12-26T08:14:46;10.10;90.60
42683;DHT22;28293;50.930;3.464;2022-12-26T08:17:12;10.10;90.60
42683;DHT22;28293;50.930;3.464;2022-12-26T08:19:38;10.20;90.70
42683;DHT22;28293;50.930;3.464;2022-12-26T08:22:03;10.20;90.70
42683;DHT22;28293;50.930;3.464;2022-12-26T08:24:29;10.20;90.70
42683;DHT22;28293;50.930;3.464;2022-12-26T08:26:55;10.20;90.80
42683;DHT22;28293;50.930;3.464;2022-12-26T08:29:20;10.20;90.90
42683;DHT22;28293;50.930;3.464;2022-12-26T08:31:46;10.20;91.10
42683;DHT22;28293;50.930;3.464;2022-12-26T08:34:12;10.30;91.30
42683;DHT22;28293;50.930;3.464;2022-12-26T08:36:38;10.20;91.40
42683;DHT22;28293;50.930;3.464;2022-12-26T08:39:04;10.20;91.50
42683;DHT22;28293;50.930;3.464;2022-12-26T08:41:30;10.20;91.60
42683;DHT22;28293;50.930;3.464;2022-12-26T08:43:55;10.20;91.70
42683;DHT22;28293;50.930;3.464;2022-12-26T08:46:21;10.20;91.90
42683;DHT22;28293;50.930;3.464;2022-12-26T08:48:48;10.10;92.10
42683;DHT22;28293;50.930;3.464;2022-12-26T08:51:20;10.10;92.50
42683;DHT22;28293;50.930;3.464;2022-12-26T08:53:46;10.00;92.80
42683;DHT22;28293;50.930;3.464;2022-12-26T08:56:19;10.00;93.00
42683;DHT22;28293;50.930;3.464;2022-12-26T08:58:46;10.00;93.00
42683;DHT22;28293;50.930;3.464;2022-12-26T09:01:17;10.00;93.00
42683;DHT22;28293;50.930;3.464;2022-12-26T09:03:43;10.10;93.00
42683;DHT22;28293;50.930;3.464;2022-12-26T09:06:11;10.10;92.80
42683;DHT22;28293;50.930;3.464;2022-12-26T09:08:38;10.10;92.70
42683;DHT22;28293;50.930;3.464;2022-12-26T09:13:35;10.10;92.50
42683;DHT22;28293;50.930;3.464;2022-12-26T09:16:12;10.10;92.50
42683;DHT22;28293;50.930;3.464;2022-12-26T09:18:39;10.10;92.50
42683;DHT22;28293;50.930;3.464;2022-12-26T09:21:06;10.10;92.40
42683;DHT22;28293;50.930;3.464;2022-12-26T09:23:33;10.10;92.10
42683;DHT22;28293;50.930;3.464;2022-12-26T09:26:11;10.20;92.00
42683;DHT22;28293;50.930;3.464;2022-12-26T09:28:37;10.20;91.90
42683;DHT22;28293;50.930;3.464;2022-12-26T09:31:06;10.20;91.80
42683;DHT22;28293;50.930;3.464;2022-12-26T09:33:33;9.90;89.30
42683;DHT22;28293;50.930;3.464;2022-12-26T09:36:13;9.60;88.10
42683;DHT22;28293;50.930;3.464;2022-12-26T09:38:39;9.40;87.60
42683;DHT22;28293;50.930;3.464;2022-12-26T09:55:34;8.90;87.30
42683;DHT22;28293;50.930;3.464;2022-12-26T09:58:13;8.90;87.30
42683;DHT22;28293;50.930;3.464;2022-12-26T10:00:45;8.90;87.30
42683;DHT22;28293;50.930;3.464;2022-12-26T10:03:13;9.00;87.10
42683;DHT22;28293;50.930;3.464;2022-12-26T10:11:20;8.90;87.10
42683;DHT22;28293;50.930;3.464;2022-12-26T10:13:56;9.00;87.10
42683;DHT22;28293;50.930;3.464;2022-12-26T10:16:48;8.90;86.90
42683;DHT22;28293;50.930;3.464;2022-12-26T10:20:15;9.00;87.00
42683;DHT22;28293;50.930;3.464;2022-12-26T10:24:56;9.00;86.30
42683;DHT22;28293;50.930;3.464;2022-12-26T10:27:24;8.90;86.20
42683;DHT22;28293;50.930;3.464;2022-12-26T10:29:56;8.90;86.10
42683;DHT22;28293;50.930;3.464;2022-12-26T10:32:24;8.80;85.50
42683;DHT22;28293;50.930;3.464;2022-12-26T10:34:52;8.90;85.60
42683;DHT22;28293;50.930;3.464;2022-12-26T10:37:37;8.90;85.60
42683;DHT22;28293;50.930;3.464;2022-12-26T10:40:26;9.00;84.70
42683;DHT22;28293;50.930;3.464;2022-12-26T10:42:59;9.10;84.00
42683;DHT22;28293;50.930;3.464;2022-12-26T10:48:17;9.10;81.50
42683;DHT22;28293;50.930;3.464;2022-12-26T10:50:47;9.10;81.40
42683;DHT22;28293;50.930;3.464;2022-12-26T10:53:15;8.90;79.20
42683;DHT22;28293;50.930;3.464;2022-12-26T10:55:41;8.90;78.50
42683;DHT22;28293;50.930;3.464;2022-12-26T10:58:27;8.80;78.40
42683;DHT22;28293;50.930;3.464;2022-12-26T11:00:55;8.80;79.30
42683;DHT22;28293;50.930;3.464;2022-12-26T11:03:21;8.80;79.00
42683;DHT22;28293;50.930;3.464;2022-12-26T11:05:47;8.80;78.60
42683;DHT22;28293;50.930;3.464;2022-12-26T11:08:34;8.80;78.60
42683;DHT22;28293;50.930;3.464;2022-12-26T11:11:08;8.70;77.70
42683;DHT22;28293;50.930;3.464;2022-12-26T11:13:45;8.70;77.90
42683;DHT22;28293;50.930;3.464;2022-12-26T11:16:11;8.70;77.90
42683;DHT22;28293;50.930;3.464;2022-12-26T11:18:46;8.70;78.10
42683;DHT22;28293;50.930;3.464;2022-12-26T11:23:44;8.50;78.40
42683;DHT22;28293;50.930;3.464;2022-12-26T11:26:21;8.50;78.10
42683;DHT22;28293;50.930;3.464;2022-12-26T11:29:03;8.50;78.00
42683;DHT22;28293;50.930;3.464;2022-12-26T11:31:30;8.50;78.00
42683;DHT22;28293;50.930;3.464;2022-12-26T11:33:58;8.30;78.20
42683;DHT22;28293;50.930;3.464;2022-12-26T11:36:26;8.40;77.90
42683;DHT22;28293;50.930;3.464;2022-12-26T11:38:55;8.20;78.40
42683;DHT22;28293;50.930;3.464;2022-12-26T11:44:28;8.10;78.80
42683;DHT22;28293;50.930;3.464;2022-12-26T11:47:06;8.10;78.20
42683;DHT22;28293;50.930;3.464;2022-12-26T11:49:36;8.00;77.10
42683;DHT22;28293;50.930;3.464;2022-12-26T11:54:54;7.90;76.30
42683;DHT22;28293;50.930;3.464;2022-12-26T11:57:22;8.00;76.10
42683;DHT22;28293;50.930;3.464;2022-12-26T11:59:52;7.90;76.40
42683;DHT22;28293;50.930;3.464;2022-12-26T12:04:50;7.90;76.10
42683;DHT22;28293;50.930;3.464;2022-12-26T12:07:39;8.00;76.20
42683;DHT22;28293;50.930;3.464;2022-12-26T12:13:20;7.90;74.80
42683;DHT22;28293;50.930;3.464;2022-12-26T12:19:17;7.90;75.60
42683;DHT22;28293;50.930;3.464;2022-12-26T12:30:19;7.90;74.70
42683;DHT22;28293;50.930;3.464;2022-12-26T12:33:12;7.80;75.70
42683;DHT22;28293;50.930;3.464;2022-12-26T12:58:10;7.80;71.90
42683;DHT22;28293;50.930;3.464;2022-12-26T13:00:47;7.80;71.50
42683;DHT22;28293;50.930;3.464;2022-12-26T13:06:29;7.80;70.70
42683;DHT22;28293;50.930;3.464;2022-12-26T13:09:01;7.70;71.00
42683;DHT22;28293;50.930;3.464;2022-12-26T13:11:40;7.70;71.10
42683;DHT22;28293;50.930;3.464;2022-12-26T13:14:11;7.70;70.70
42683;DHT22;28293;50.930;3.464;2022-12-26T13:16:41;7.80;71.20
42683;DHT22;28293;50.930;3.464;2022-12-26T13:19:15;7.80;70.50
42683;DHT22;28293;50.930;3.464;2022-12-26T13:21:41;7.80;70.70
42683;DHT22;28293;50.930;3.464;2022-12-26T13:27:20;7.70;69.80
42683;DHT22;28293;50.930;3.464;2022-12-26T13:29:47;7.70;69.70
42683;DHT22;28293;50.930;3.464;2022-12-26T13:34:47;7.60;68.70
42683;DHT22;28293;50.930;3.464;2022-12-26T13:40:26;7.40;68.30
42683;DHT22;28293;50.930;3.464;2022-12-26T13:43:13;7.40;70.00
42683;DHT22;28293;50.930;3.464;2022-12-26T13:45:59;7.30;70.40
42683;DHT22;28293;50.930;3.464;2022-12-26T13:50:55;7.30;70.90
42683;DHT22;28293;50.930;3.464;2022-12-26T13:56:01;7.10;70.80
42683;DHT22;28293;50.930;3.464;2022-12-26T14:01:07;7.10;71.50
42683;DHT22;28293;50.930;3.464;2022-12-26T14:06:36;7.00;72.60
42683;DHT22;28293;50.930;3.464;2022-12-26T14:12:22;7.00;72.30
42683;DHT22;28293;50.930;3.464;2022-12-26T14:23:51;6.80;74.00
42683;DHT22;28293;50.930;3.464;2022-12-26T14:26:37;6.80;74.10
42683;DHT22;28293;50.930;3.464;2022-12-26T14:38:32;6.80;74.80
42683;DHT22;28293;50.930;3.464;2022-12-26T14:41:08;6.90;75.00
42683;DHT22;28293;50.930;3.464;2022-12-26T14:43:54;6.80;75.40
42683;DHT22;28293;50.930;3.464;2022-12-26T14:48:56;6.90;76.10
42683;DHT22;28293;50.930;3.464;2022-12-26T14:51:27;6.80;76.10
42683;DHT22;28293;50.930;3.464;2022-12-26T14:54:17;6.80;76.00
42683;DHT22;28293;50.930;3.464;2022-12-26T14:56:51;6.80;76.20
42683;DHT22;28293;50.930;3.464;2022-12-26T14:59:31;6.80;76.50
42683;DHT22;28293;50.930;3.464;2022-12-26T15:02:08;6.80;76.60
42683;DHT22;28293;50.930;3.464;2022-12-26T15:04:57;6.70;76.70
42683;DHT22;28293;50.930;3.464;2022-12-26T15:16:16;6.60;77.80
42683;DHT22;28293;50.930;3.464;2022-12-26T15:22:02;6.40;78.40
42683;DHT22;28293;50.930;3.464;2022-12-26T15:25:13;6.40;78.80
42683;DHT22;28293;50.930;3.464;2022-12-26T15:28:02;6.30;79.00
42683;DHT22;28293;50.930;3.464;2022-12-26T15:31:10;6.20;79.30
42683;DHT22;28293;50.930;3.464;2022-12-26T15:33:49;6.10;79.50
42683;DHT22;28293;50.930;3.464;2022-12-26T15:36:29;6.10;79.90
42683;DHT22;28293;50.930;3.464;2022-12-26T15:41:53;6.00;80.20
42683;DHT22;28293;50.930;3.464;2022-12-26T15:44:27;5.90;80.60
42683;DHT22;28293;50.930;3.464;2022-12-26T15:47:18;5.90;80.70
42683;DHT22;28293;50.930;3.464;2022-12-26T15:49:57;5.80;81.10
42683;DHT22;28293;50.930;3.464;2022-12-26T15:52:44;5.80;81.30
42683;DHT22;28293;50.930;3.464;2022-12-26T16:00:52;5.70;81.60
42683;DHT22;28293;50.930;3.464;2022-12-26T16:03:30;5.60;81.80
42683;DHT22;28293;50.930;3.464;2022-12-26T16:09:42;5.60;82.20
42683;DHT22;28293;50.930;3.464;2022-12-26T16:11:56;5.50;82.50
42683;DHT22;28293;50.930;3.464;2022-12-26T16:14:34;5.50;82.70
42683;DHT22;28293;50.930;3.464;2022-12-26T16:19:39;5.40;82.90
42683;DHT22;28293;50.930;3.464;2022-12-26T16:22:10;5.30;83.10
42683;DHT22;28293;50.930;3.464;2022-12-26T16:24:55;5.30;83.30
42683;DHT22;28293;50.930;3.464;2022-12-26T16:27:23;5.30;83.30
42683;DHT22;28293;50.930;3.464;2022-12-26T16:30:01;5.20;83.20
42683;DHT22;28293;50.930;3.464;2022-12-26T16:32:34;5.20;83.40
42683;DHT22;28293;50.930;3.464;2022-12-26T16:35:00;5.20;83.50
42683;DHT22;28293;50.930;3.464;2022-12-26T16:37:26;5.10;83.50
42683;DHT22;28293;50.930;3.464;2022-12-26T16:42:37;5.10;83.60
42683;DHT22;28293;50.930;3.464;2022-12-26T16:45:17;5.00;83.70
42683;DHT22;28293;50.930;3.464;2022-12-26T16:47:43;5.00;83.60
42683;DHT22;28293;50.930;3.464;2022-12-26T16:50:19;5.00;83.60
42683;DHT22;28293;50.930;3.464;2022-12-26T16:52:45;4.90;83.70
42683;DHT22;28293;50.930;3.464;2022-12-26T16:57:58;4.90;83.90
42683;DHT22;28293;50.930;3.464;2022-12-26T17:00:25;4.80;84.00
42683;DHT22;28293;50.930;3.464;2022-12-26T17:02:53;4.80;84.20
42683;DHT22;28293;50.930;3.464;2022-12-26T17:05:31;4.80;84.20
42683;DHT22;28293;50.930;3.464;2022-12-26T17:07:59;4.80;84.20
42683;DHT22;28293;50.930;3.464;2022-12-26T17:10:33;4.70;84.30
42683;DHT22;28293;50.930;3.464;2022-12-26T17:13:03;4.70;84.40
42683;DHT22;28293;50.930;3.464;2022-12-26T17:15:35;4.60;84.50
42683;DHT22;28293;50.930;3.464;2022-12-26T17:23:43;4.60;84.60
42683;DHT22;28293;50.930;3.464;2022-12-26T17:26:22;4.60;84.50
42683;DHT22;28293;50.930;3.464;2022-12-26T17:28:48;4.60;84.60
42683;DHT22;28293;50.930;3.464;2022-12-26T17:31:22;4.60;84.60
42683;DHT22;28293;50.930;3.464;2022-12-26T17:33:49;4.60;84.70
42683;DHT22;28293;50.930;3.464;2022-12-26T17:36:16;4.60;84.80
42683;DHT22;28293;50.930;3.464;2022-12-26T17:38:43;4.50;84.90
42683;DHT22;28293;50.930;3.464;2022-12-26T17:41:13;4.60;84.90
42683;DHT22;28293;50.930;3.464;2022-12-26T17:43:43;4.60;85.00
42683;DHT22;28293;50.930;3.464;2022-12-26T17:46:12;4.50;85.00
42683;DHT22;28293;50.930;3.464;2022-12-26T17:48:39;4.50;85.10
42683;DHT22;28293;50.930;3.464;2022-12-26T17:51:07;4.50;84.90
42683;DHT22;28293;50.930;3.464;2022-12-26T17:53:40;4.50;85.00
42683;DHT22;28293;50.930;3.464;2022-12-26T17:56:18;4.50;85.10
42683;DHT22;28293;50.930;3.464;2022-12-26T17:58:46;4.60;85.00
42683;DHT22;28293;50.930;3.464;2022-12-26T18:01:14;4.60;84.90
42683;DHT22;28293;50.930;3.464;2022-12-26T18:03:41;4.60;84.80
42683;DHT22;28293;50.930;3.464;2022-12-26T18:06:08;4.60;84.80
42683;DHT22;28293;50.930;3.464;2022-12-26T18:08:39;4.60;84.70
42683;DHT22;28293;50.930;3.464;2022-12-26T18:11:08;4.60;84.90
42683;DHT22;28293;50.930;3.464;2022-12-26T18:13:34;4.60;84.90
42683;DHT22;28293;50.930;3.464;2022-12-26T18:16:00;4.60;84.90
42683;DHT22;28293;50.930;3.464;2022-12-26T18:18:36;4.70;85.10
42683;DHT22;28293;50.930;3.464;2022-12-26T18:21:04;4.60;85.10
42683;DHT22;28293;50.930;3.464;2022-12-26T18:23:30;4.70;85.10
42683;DHT22;28293;50.930;3.464;2022-12-26T18:25:59;4.70;85.10
42683;DHT22;28293;50.930;3.464;2022-12-26T18:28:26;4.60;85.30
42683;DHT22;28293;50.930;3.464;2022-12-26T18:30:52;4.70;85.30
42683;DHT22;28293;50.930;3.464;2022-12-26T18:33:19;4.70;85.70
42683;DHT22;28293;50.930;3.464;2022-12-26T18:35:45;4.70;85.60
42683;DHT22;28293;50.930;3.464;2022-12-26T18:38:17;4.60;85.70
42683;DHT22;28293;50.930;3.464;2022-12-26T18:40:46;4.70;85.90
42683;DHT22;28293;50.930;3.464;2022-12-26T18:43:13;4.70;85.80
42683;DHT22;28293;50.930;3.464;2022-12-26T18:45:39;4.60;86.00
42683;DHT22;28293;50.930;3.464;2022-12-26T18:48:09;4.70;86.10
42683;DHT22;28293;50.930;3.464;2022-12-26T18:50:36;4.60;86.20
42683;DHT22;28293;50.930;3.464;2022-12-26T18:53:02;4.60;86.50
42683;DHT22;28293;50.930;3.464;2022-12-26T18:55:28;4.60;86.60
42683;DHT22;28293;50.930;3.464;2022-12-26T18:57:54;4.60;86.90
42683;DHT22;28293;50.930;3.464;2022-12-26T19:00:21;4.60;87.00
42683;DHT22;28293;50.930;3.464;2022-12-26T19:02:47;4.60;87.10
42683;DHT22;28293;50.930;3.464;2022-12-26T19:05:34;4.60;87.30
42683;DHT22;28293;50.930;3.464;2022-12-26T19:08:01;4.60;87.30
42683;DHT22;28293;50.930;3.464;2022-12-26T19:10:29;4.60;87.30
42683;DHT22;28293;50.930;3.464;2022-12-26T19:12:56;4.60;87.30
42683;DHT22;28293;50.930;3.464;2022-12-26T19:15:24;4.60;87.40
42683;DHT22;28293;50.930;3.464;2022-12-26T19:17:49;4.60;87.50
42683;DHT22;28293;50.930;3.464;2022-12-26T19:20:18;4.60;87.70
42683;DHT22;28293;50.930;3.464;2022-12-26T19:22:45;4.60;87.60
42683;DHT22;28293;50.930;3.464;2022-12-26T19:25:10;4.60;87.70
42683;DHT22;28293;50.930;3.464;2022-12-26T19:27:36;4.50;87.70
42683;DHT22;28293;50.930;3.464;2022-12-26T19:30:02;4.60;87.70
42683;DHT22;28293;50.930;3.464;2022-12-26T19:32:28;4.50;87.80
42683;DHT22;28293;50.930;3.464;2022-12-26T19:34:53;4.50;87.80
42683;DHT22;28293;50.930;3.464;2022-12-26T19:37:22;4.50;87.80